sensor_id;sensor_type;location;lat;lon;timestamp;temperature;humidity
15937;DHT22;9163;48.818;8.976;2022-08-19T00:01:34;19.70;99.90
15937;DHT22;9163;48.818;8.976;2022-08-19T00:04:06;19.70;99.90
15937;DHT22;9163;48.818;8.976;2022-08-19T00:06:35;19.70;99.90
15937;DHT22;9163;48.818;8.976;2022-08-19T00:09:04;19.70;99.90
15937;DHT22;9163;48.818;8.976;2022-08-19T00:11:33;19.70;99.90
15937;DHT22;9163;48.818;8.976;2022-08-19T00:14:03;19.70;99.90
15937;DHT22;9163;48.818;8.976;2022-08-19T00:16:31;19.70;99.90
15937;DHT22;9163;48.818;8.976;2022-08-19T00:18:58;19.70;99.90
15937;DHT22;9163;48.818;8.976;2022-08-19T00:21:26;19.70;99.90
15937;DHT22;9163;48.818;8.976;2022-08-19T00:23:54;19.70;99.90
15937;DHT22;9163;48.818;8.976;2022-08-19T00:26:24;19.70;99.90
15937;DHT22;9163;48.818;8.976;2022-08-19T00:28:53;19.70;99.90
15937;DHT22;9163;48.818;8.976;2022-08-19T00:31:20;19.70;99.90
15937;DHT22;9163;48.818;8.976;2022-08-19T00:33:48;19.70;99.90
15937;DHT22;9163;48.818;8.976;2022-08-19T00:36:17;19.70;99.90
15937;DHT22;9163;48.818;8.976;2022-08-19T00:38:44;19.70;99.90
15937;DHT22;9163;48.818;8.976;2022-08-19T00:41:13;19.70;99.90
15937;DHT22;9163;48.818;8.976;2022-08-19T00:43:41;19.70;99.90
15937;DHT22;9163;48.818;8.976;2022-08-19T00:46:09;19.70;99.90
15937;DHT22;9163;48.818;8.976;2022-08-19T00:48:37;19.60;99.90
15937;DHT22;9163;48.818;8.976;2022-08-19T00:51:05;19.60;99.90
15937;DHT22;9163;48.818;8.976;2022-08-19T00:53:32;19.60;99.90
15937;DHT22;9163;48.818;8.976;2022-08-19T00:56:02;19.60;99.90
15937;DHT22;9163;48.818;8.976;2022-08-19T00:58:33;19.60;99.90
15937;DHT22;9163;48.818;8.976;2022-08-19T01:01:02;19.60;99.90
15937;DHT22;9163;48.818;8.976;2022-08-19T01:03:30;19.60;99.90
15937;DHT22;9163;48.818;8.976;2022-08-19T01:05:58;19.60;99.90
15937;DHT22;9163;48.818;8.976;2022-08-19T01:08:25;19.60;99.90
15937;DHT22;9163;48.818;8.976;2022-08-19T01:10:55;19.60;99.90
15937;DHT22;9163;48.818;8.976;2022-08-19T01:13:27;19.50;99.90
15937;DHT22;9163;48.818;8.976;2022-08-19T01:15:57;19.50;99.90
15937;DHT22;9163;48.818;8.976;2022-08-19T01:18:27;19.50;99.90
15937;DHT22;9163;48.818;8.976;2022-08-19T01:20:58;19.40;99.90
15937;DHT22;9163;48.818;8.976;2022-08-19T01:23:29;19.40;99.90
15937;DHT22;9163;48.818;8.976;2022-08-19T01:26:11;19.40;99.90
15937;DHT22;9163;48.818;8.976;2022-08-19T01:28:40;19.40;99.90
15937;DHT22;9163;48.818;8.976;2022-08-19T01:31:09;19.40;99.90
15937;DHT22;9163;48.818;8.976;2022-08-19T01:33:37;19.40;99.90
15937;DHT22;9163;48.818;8.976;2022-08-19T01:36:07;19.30;99.90
15937;DHT22;9163;48.818;8.976;2022-08-19T01:38:38;19.30;99.90
15937;DHT22;9163;48.818;8.976;2022-08-19T01:41:07;19.30;99.90
15937;DHT22;9163;48.818;8.976;2022-08-19T01:43:34;19.30;99.90
15937;DHT22;9163;48.818;8.976;2022-08-19T01:46:03;19.30;99.90
15937;DHT22;9163;48.818;8.976;2022-08-19T01:48:34;19.20;99.90
15937;DHT22;9163;48.818;8.976;2022-08-19T01:51:01;19.20;99.90
15937;DHT22;9163;48.818;8.976;2022-08-19T01:53:29;19.20;99.90
15937;DHT22;9163;48.818;8.976;2022-08-19T01:56:01;19.20;99.90
15937;DHT22;9163;48.818;8.976;2022-08-19T01:58:32;19.20;99.90
15937;DHT22;9163;48.818;8.976;2022-08-19T02:01:02;19.20;99.90
15937;DHT22;9163;48.818;8.976;2022-08-19T02:03:29;19.20;99.90
15937;DHT22;9163;48.818;8.976;2022-08-19T02:05:58;19.20;99.90
15937;DHT22;9163;48.818;8.976;2022-08-19T02:08:26;19.10;99.90
15937;DHT22;9163;48.818;8.976;2022-08-19T02:10:54;19.20;99.90
15937;DHT22;9163;48.818;8.976;2022-08-19T02:13:22;19.10;99.90
15937;DHT22;9163;48.818;8.976;2022-08-19T02:15:50;19.10;99.90
15937;DHT22;9163;48.818;8.976;2022-08-19T02:18:17;19.10;99.90
15937;DHT22;9163;48.818;8.976;2022-08-19T02:20:45;19.10;99.90
15937;DHT22;9163;48.818;8.976;2022-08-19T02:23:15;19.00;99.90
15937;DHT22;9163;48.818;8.976;2022-08-19T02:25:43;19.00;99.90
15937;DHT22;9163;48.818;8.976;2022-08-19T02:28:10;19.00;99.90
15937;DHT22;9163;48.818;8.976;2022-08-19T02:30:41;19.00;99.90
15937;DHT22;9163;48.818;8.976;2022-08-19T02:33:08;19.00;99.90
15937;DHT22;9163;48.818;8.976;2022-08-19T02:35:35;19.00;99.90
15937;DHT22;9163;48.818;8.976;2022-08-19T02:38:02;19.00;99.90
15937;DHT22;9163;48.818;8.976;2022-08-19T02:40:49;19.00;99.90
15937;DHT22;9163;48.818;8.976;2022-08-19T02:43:17;19.00;99.90
15937;DHT22;9163;48.818;8.976;2022-08-19T02:45:48;18.90;99.90
15937;DHT22;9163;48.818;8.976;2022-08-19T02:48:15;18.90;99.90
15937;DHT22;9163;48.818;8.976;2022-08-19T02:50:44;18.90;99.90
15937;DHT22;9163;48.818;8.976;2022-08-19T02:53:11;18.90;99.90
15937;DHT22;9163;48.818;8.976;2022-08-19T02:55:45;18.90;99.90
15937;DHT22;9163;48.818;8.976;2022-08-19T02:58:13;18.90;99.90
15937;DHT22;9163;48.818;8.976;2022-08-19T03:00:43;18.90;99.90
15937;DHT22;9163;48.818;8.976;2022-08-19T03:03:12;18.90;99.90
15937;DHT22;9163;48.818;8.976;2022-08-19T03:05:40;18.90;99.90
15937;DHT22;9163;48.818;8.976;2022-08-19T03:08:08;18.90;99.90
15937;DHT22;9163;48.818;8.976;2022-08-19T03:10:42;18.80;99.90
15937;DHT22;9163;48.818;8.976;2022-08-19T03:13:12;18.80;99.90
15937;DHT22;9163;48.818;8.976;2022-08-19T03:15:41;18.80;99.90
15937;DHT22;9163;48.818;8.976;2022-08-19T03:18:09;18.70;99.90
15937;DHT22;9163;48.818;8.976;2022-08-19T03:20:42;18.80;99.90
15937;DHT22;9163;48.818;8.976;2022-08-19T03:23:10;18.80;99.90
15937;DHT22;9163;48.818;8.976;2022-08-19T03:25:39;18.70;99.90
15937;DHT22;9163;48.818;8.976;2022-08-19T03:28:09;18.60;99.90
15937;DHT22;9163;48.818;8.976;2022-08-19T03:30:38;18.60;99.90
15937;DHT22;9163;48.818;8.976;2022-08-19T03:33:07;18.70;99.90
15937;DHT22;9163;48.818;8.976;2022-08-19T03:35:34;18.70;99.90
15937;DHT22;9163;48.818;8.976;2022-08-19T03:38:04;18.70;99.90
15937;DHT22;9163;48.818;8.976;2022-08-19T03:40:31;18.70;99.90
15937;DHT22;9163;48.818;8.976;2022-08-19T03:43:00;18.70;99.90
15937;DHT22;9163;48.818;8.976;2022-08-19T03:45:28;18.70;99.90
15937;DHT22;9163;48.818;8.976;2022-08-19T03:47:55;18.60;99.90
15937;DHT22;9163;48.818;8.976;2022-08-19T03:50:23;18.60;99.90
15937;DHT22;9163;48.818;8.976;2022-08-19T03:52:51;18.60;99.90
15937;DHT22;9163;48.818;8.976;2022-08-19T03:55:19;18.50;99.90
15937;DHT22;9163;48.818;8.976;2022-08-19T03:57:47;18.50;99.90
15937;DHT22;9163;48.818;8.976;2022-08-19T04:00:15;18.50;99.90
15937;DHT22;9163;48.818;8.976;2022-08-19T04:02:42;18.50;99.90
15937;DHT22;9163;48.818;8.976;2022-08-19T04:05:10;18.50;99.90
15937;DHT22;9163;48.818;8.976;2022-08-19T04:07:38;18.50;99.90
15937;DHT22;9163;48.818;8.976;2022-08-19T04:10:06;18.50;99.90
15937;DHT22;9163;48.818;8.976;2022-08-19T04:12:34;18.50;99.90
15937;DHT22;9163;48.818;8.976;2022-08-19T04:15:03;18.50;99.90
15937;DHT22;9163;48.818;8.976;2022-08-19T04:17:30;18.50;99.90
15937;DHT22;9163;48.818;8.976;2022-08-19T04:19:58;18.50;99.90
15937;DHT22;9163;48.818;8.976;2022-08-19T04:22:25;18.50;99.90
15937;DHT22;9163;48.818;8.976;2022-08-19T04:24:52;18.50;99.90
15937;DHT22;9163;48.818;8.976;2022-08-19T04:27:19;18.50;99.90
15937;DHT22;9163;48.818;8.976;2022-08-19T04:29:48;18.50;99.90
15937;DHT22;9163;48.818;8.976;2022-08-19T04:32:15;18.50;99.90
15937;DHT22;9163;48.818;8.976;2022-08-19T04:34:42;18.50;99.90
15937;DHT22;9163;48.818;8.976;2022-08-19T04:37:09;18.50;99.90
15937;DHT22;9163;48.818;8.976;2022-08-19T04:39:37;18.50;99.90
15937;DHT22;9163;48.818;8.976;2022-08-19T04:42:22;18.50;99.90
15937;DHT22;9163;48.818;8.976;2022-08-19T04:45:09;18.50;99.90
15937;DHT22;9163;48.818;8.976;2022-08-19T04:47:37;18.50;99.90
15937;DHT22;9163;48.818;8.976;2022-08-19T04:50:05;18.40;99.90
15937;DHT22;9163;48.818;8.976;2022-08-19T04:52:33;18.50;99.90
15937;DHT22;9163;48.818;8.976;2022-08-19T04:55:01;18.40;99.90
15937;DHT22;9163;48.818;8.976;2022-08-19T04:57:28;18.40;99.90
15937;DHT22;9163;48.818;8.976;2022-08-19T04:59:56;18.40;99.90
15937;DHT22;9163;48.818;8.976;2022-08-19T05:02:25;18.40;99.90
15937;DHT22;9163;48.818;8.976;2022-08-19T05:04:56;18.50;99.90
15937;DHT22;9163;48.818;8.976;2022-08-19T05:07:24;18.50;99.90
15937;DHT22;9163;48.818;8.976;2022-08-19T05:09:51;18.60;99.90
15937;DHT22;9163;48.818;8.976;2022-08-19T05:12:19;18.60;99.90
15937;DHT22;9163;48.818;8.976;2022-08-19T05:14:46;18.60;99.90
15937;DHT22;9163;48.818;8.976;2022-08-19T05:17:13;18.70;99.90
15937;DHT22;9163;48.818;8.976;2022-08-19T05:19:42;18.70;99.90
15937;DHT22;9163;48.818;8.976;2022-08-19T05:22:27;18.80;99.90
15937;DHT22;9163;48.818;8.976;2022-08-19T05:25:06;18.80;99.90
15937;DHT22;9163;48.818;8.976;2022-08-19T05:27:34;18.90;99.90
15937;DHT22;9163;48.818;8.976;2022-08-19T05:30:02;18.90;99.90
15937;DHT22;9163;48.818;8.976;2022-08-19T05:32:30;18.90;99.90
15937;DHT22;9163;48.818;8.976;2022-08-19T05:34:58;18.90;99.90
15937;DHT22;9163;48.818;8.976;2022-08-19T05:37:25;18.90;99.90
15937;DHT22;9163;48.818;8.976;2022-08-19T05:39:54;18.90;99.90
15937;DHT22;9163;48.818;8.976;2022-08-19T05:42:22;18.90;99.90
15937;DHT22;9163;48.818;8.976;2022-08-19T05:44:50;18.90;99.90
15937;DHT22;9163;48.818;8.976;2022-08-19T05:47:18;18.90;99.90
15937;DHT22;9163;48.818;8.976;2022-08-19T05:49:46;18.90;99.90
15937;DHT22;9163;48.818;8.976;2022-08-19T05:52:15;18.90;99.90
15937;DHT22;9163;48.818;8.976;2022-08-19T05:54:42;19.00;99.90
15937;DHT22;9163;48.818;8.976;2022-08-19T05:57:14;19.00;99.90
15937;DHT22;9163;48.818;8.976;2022-08-19T05:59:41;19.00;99.90
15937;DHT22;9163;48.818;8.976;2022-08-19T06:02:09;19.00;99.90
15937;DHT22;9163;48.818;8.976;2022-08-19T06:04:37;19.00;99.90
15937;DHT22;9163;48.818;8.976;2022-08-19T06:07:05;18.90;99.90
15937;DHT22;9163;48.818;8.976;2022-08-19T06:09:33;18.90;99.90
15937;DHT22;9163;48.818;8.976;2022-08-19T06:12:01;18.90;99.90
15937;DHT22;9163;48.818;8.976;2022-08-19T06:14:32;18.90;99.90
15937;DHT22;9163;48.818;8.976;2022-08-19T06:17:01;18.90;99.90
15937;DHT22;9163;48.818;8.976;2022-08-19T06:19:29;19.00;99.90
15937;DHT22;9163;48.818;8.976;2022-08-19T06:21:58;19.00;99.90
15937;DHT22;9163;48.818;8.976;2022-08-19T06:24:27;19.00;99.90
15937;DHT22;9163;48.818;8.976;2022-08-19T06:26:57;18.90;99.90
15937;DHT22;9163;48.818;8.976;2022-08-19T06:29:26;19.00;99.90
15937;DHT22;9163;48.818;8.976;2022-08-19T06:31:56;19.00;99.90
15937;DHT22;9163;48.818;8.976;2022-08-19T06:34:24;19.00;99.90
15937;DHT22;9163;48.818;8.976;2022-08-19T06:36:53;19.10;99.90
15937;DHT22;9163;48.818;8.976;2022-08-19T06:39:23;19.10;99.90
15937;DHT22;9163;48.818;8.976;2022-08-19T06:41:53;19.10;99.90
15937;DHT22;9163;48.818;8.976;2022-08-19T06:44:24;19.10;99.90
15937;DHT22;9163;48.818;8.976;2022-08-19T06:46:53;19.10;99.90
15937;DHT22;9163;48.818;8.976;2022-08-19T06:49:21;19.20;99.90
15937;DHT22;9163;48.818;8.976;2022-08-19T06:51:50;19.10;99.90
15937;DHT22;9163;48.818;8.976;2022-08-19T06:54:18;19.20;99.90
15937;DHT22;9163;48.818;8.976;2022-08-19T06:56:46;19.20;99.90
15937;DHT22;9163;48.818;8.976;2022-08-19T06:59:16;19.20;99.90
15937;DHT22;9163;48.818;8.976;2022-08-19T07:01:47;19.40;99.90
15937;DHT22;9163;48.818;8.976;2022-08-19T07:04:17;19.60;99.90
15937;DHT22;9163;48.818;8.976;2022-08-19T07:06:45;19.60;99.90
15937;DHT22;9163;48.818;8.976;2022-08-19T07:09:15;19.70;99.90
15937;DHT22;9163;48.818;8.976;2022-08-19T07:11:44;19.90;99.90
15937;DHT22;9163;48.818;8.976;2022-08-19T07:14:12;19.90;99.90
15937;DHT22;9163;48.818;8.976;2022-08-19T07:16:40;19.90;99.90
15937;DHT22;9163;48.818;8.976;2022-08-19T07:19:08;19.80;99.90
15937;DHT22;9163;48.818;8.976;2022-08-19T07:21:35;19.80;99.90
15937;DHT22;9163;48.818;8.976;2022-08-19T07:24:04;19.90;99.90
15937;DHT22;9163;48.818;8.976;2022-08-19T07:26:33;19.80;99.90
15937;DHT22;9163;48.818;8.976;2022-08-19T07:29:00;19.70;99.90
15937;DHT22;9163;48.818;8.976;2022-08-19T07:31:28;19.60;99.90
15937;DHT22;9163;48.818;8.976;2022-08-19T07:33:56;19.70;99.90
15937;DHT22;9163;48.818;8.976;2022-08-19T07:36:27;19.70;99.90
15937;DHT22;9163;48.818;8.976;2022-08-19T07:38:59;19.70;99.90
15937;DHT22;9163;48.818;8.976;2022-08-19T07:41:28;19.80;99.90
15937;DHT22;9163;48.818;8.976;2022-08-19T07:43:58;19.80;99.90
15937;DHT22;9163;48.818;8.976;2022-08-19T07:46:30;19.80;99.90
15937;DHT22;9163;48.818;8.976;2022-08-19T07:48:58;19.80;99.90
15937;DHT22;9163;48.818;8.976;2022-08-19T07:51:28;19.90;99.90
15937;DHT22;9163;48.818;8.976;2022-08-19T07:53:55;19.90;99.90
15937;DHT22;9163;48.818;8.976;2022-08-19T07:56:23;20.00;99.90
15937;DHT22;9163;48.818;8.976;2022-08-19T07:58:52;20.10;99.90
15937;DHT22;9163;48.818;8.976;2022-08-19T08:01:21;20.30;99.90
15937;DHT22;9163;48.818;8.976;2022-08-19T08:03:51;20.30;99.90
15937;DHT22;9163;48.818;8.976;2022-08-19T08:06:37;20.30;99.90
15937;DHT22;9163;48.818;8.976;2022-08-19T08:09:25;20.30;99.90
15937;DHT22;9163;48.818;8.976;2022-08-19T08:11:55;20.30;99.90
15937;DHT22;9163;48.818;8.976;2022-08-19T08:14:26;20.30;99.90
15937;DHT22;9163;48.818;8.976;2022-08-19T08:16:53;20.20;99.90
15937;DHT22;9163;48.818;8.976;2022-08-19T08:19:23;20.10;99.90
15937;DHT22;9163;48.818;8.976;2022-08-19T08:21:54;20.20;99.90
15937;DHT22;9163;48.818;8.976;2022-08-19T08:24:22;20.20;99.90
15937;DHT22;9163;48.818;8.976;2022-08-19T08:26:49;20.30;99.90
15937;DHT22;9163;48.818;8.976;2022-08-19T08:29:17;20.40;99.90
15937;DHT22;9163;48.818;8.976;2022-08-19T08:31:46;20.30;99.90
15937;DHT22;9163;48.818;8.976;2022-08-19T08:34:14;20.30;99.90
15937;DHT22;9163;48.818;8.976;2022-08-19T08:36:43;20.40;99.90
15937;DHT22;9163;48.818;8.976;2022-08-19T08:39:14;20.40;99.90
15937;DHT22;9163;48.818;8.976;2022-08-19T08:41:47;20.30;99.90
15937;DHT22;9163;48.818;8.976;2022-08-19T08:44:22;20.30;99.90
15937;DHT22;9163;48.818;8.976;2022-08-19T08:46:53;20.40;99.90
15937;DHT22;9163;48.818;8.976;2022-08-19T08:49:32;20.60;99.90
15937;DHT22;9163;48.818;8.976;2022-08-19T08:52:04;20.70;99.90
15937;DHT22;9163;48.818;8.976;2022-08-19T08:54:37;20.80;99.90
15937;DHT22;9163;48.818;8.976;2022-08-19T08:57:11;20.80;99.90
15937;DHT22;9163;48.818;8.976;2022-08-19T08:59:41;21.00;99.90
15937;DHT22;9163;48.818;8.976;2022-08-19T09:02:10;20.80;99.90
15937;DHT22;9163;48.818;8.976;2022-08-19T09:04:37;21.00;99.90
15937;DHT22;9163;48.818;8.976;2022-08-19T09:07:18;20.90;99.90
15937;DHT22;9163;48.818;8.976;2022-08-19T09:09:51;20.90;99.90
15937;DHT22;9163;48.818;8.976;2022-08-19T09:12:25;21.00;99.90
15937;DHT22;9163;48.818;8.976;2022-08-19T09:15:03;21.10;99.90
15937;DHT22;9163;48.818;8.976;2022-08-19T09:17:31;21.20;99.90
15937;DHT22;9163;48.818;8.976;2022-08-19T09:20:04;21.40;99.90
15937;DHT22;9163;48.818;8.976;2022-08-19T09:22:35;21.40;99.90
15937;DHT22;9163;48.818;8.976;2022-08-19T09:25:04;21.30;99.90
15937;DHT22;9163;48.818;8.976;2022-08-19T09:27:32;21.30;99.90
15937;DHT22;9163;48.818;8.976;2022-08-19T09:29:59;21.30;99.90
15937;DHT22;9163;48.818;8.976;2022-08-19T09:32:27;21.20;99.90
15937;DHT22;9163;48.818;8.976;2022-08-19T09:34:54;21.30;99.90
15937;DHT22;9163;48.818;8.976;2022-08-19T09:37:24;21.20;99.90
15937;DHT22;9163;48.818;8.976;2022-08-19T09:39:51;21.20;99.90
15937;DHT22;9163;48.818;8.976;2022-08-19T09:42:20;21.20;99.90
15937;DHT22;9163;48.818;8.976;2022-08-19T09:44:47;21.30;99.90
15937;DHT22;9163;48.818;8.976;2022-08-19T09:47:14;21.20;99.90
15937;DHT22;9163;48.818;8.976;2022-08-19T09:49:42;21.30;99.90
15937;DHT22;9163;48.818;8.976;2022-08-19T09:52:10;21.20;99.90
15937;DHT22;9163;48.818;8.976;2022-08-19T09:54:38;21.30;99.90
15937;DHT22;9163;48.818;8.976;2022-08-19T09:57:05;21.40;99.90
15937;DHT22;9163;48.818;8.976;2022-08-19T09:59:34;21.50;99.90
15937;DHT22;9163;48.818;8.976;2022-08-19T10:02:02;21.50;99.90
15937;DHT22;9163;48.818;8.976;2022-08-19T10:04:29;21.50;99.90
15937;DHT22;9163;48.818;8.976;2022-08-19T10:07:11;21.50;99.90
15937;DHT22;9163;48.818;8.976;2022-08-19T10:09:38;21.60;99.90
15937;DHT22;9163;48.818;8.976;2022-08-19T10:12:08;21.70;99.90
15937;DHT22;9163;48.818;8.976;2022-08-19T10:14:36;21.80;99.90
15937;DHT22;9163;48.818;8.976;2022-08-19T10:17:04;21.70;99.90
15937;DHT22;9163;48.818;8.976;2022-08-19T10:19:31;21.80;99.90
15937;DHT22;9163;48.818;8.976;2022-08-19T10:22:05;21.90;99.90
15937;DHT22;9163;48.818;8.976;2022-08-19T10:24:34;21.80;99.90
15937;DHT22;9163;48.818;8.976;2022-08-19T10:27:02;21.80;99.90
15937;DHT22;9163;48.818;8.976;2022-08-19T10:29:32;22.00;99.90
15937;DHT22;9163;48.818;8.976;2022-08-19T10:32:03;22.10;99.90
15937;DHT22;9163;48.818;8.976;2022-08-19T10:34:31;22.30;99.90
15937;DHT22;9163;48.818;8.976;2022-08-19T10:36:59;22.20;99.90
15937;DHT22;9163;48.818;8.976;2022-08-19T10:39:27;22.20;99.90
15937;DHT22;9163;48.818;8.976;2022-08-19T10:41:55;22.20;99.90
15937;DHT22;9163;48.818;8.976;2022-08-19T10:44:23;22.40;99.90
15937;DHT22;9163;48.818;8.976;2022-08-19T10:46:50;22.70;99.90
15937;DHT22;9163;48.818;8.976;2022-08-19T10:49:19;23.10;99.90
15937;DHT22;9163;48.818;8.976;2022-08-19T10:51:46;23.30;99.90
15937;DHT22;9163;48.818;8.976;2022-08-19T10:54:33;23.60;99.90
15937;DHT22;9163;48.818;8.976;2022-08-19T10:57:17;23.80;99.90
15937;DHT22;9163;48.818;8.976;2022-08-19T10:59:44;24.10;99.90
15937;DHT22;9163;48.818;8.976;2022-08-19T11:02:13;24.50;99.90
15937;DHT22;9163;48.818;8.976;2022-08-19T11:04:41;24.50;99.90
15937;DHT22;9163;48.818;8.976;2022-08-19T11:07:09;24.30;99.90
15937;DHT22;9163;48.818;8.976;2022-08-19T11:09:40;24.40;99.90
15937;DHT22;9163;48.818;8.976;2022-08-19T11:12:08;24.30;99.90
15937;DHT22;9163;48.818;8.976;2022-08-19T11:14:36;24.20;99.90
15937;DHT22;9163;48.818;8.976;2022-08-19T11:17:05;24.20;99.90
15937;DHT22;9163;48.818;8.976;2022-08-19T11:19:32;24.20;99.90
15937;DHT22;9163;48.818;8.976;2022-08-19T11:22:01;24.40;99.90
15937;DHT22;9163;48.818;8.976;2022-08-19T11:24:30;24.50;99.90
15937;DHT22;9163;48.818;8.976;2022-08-19T11:27:02;24.50;99.90
15937;DHT22;9163;48.818;8.976;2022-08-19T11:29:31;24.50;99.90
15937;DHT22;9163;48.818;8.976;2022-08-19T11:31:58;24.40;99.90
15937;DHT22;9163;48.818;8.976;2022-08-19T11:34:27;24.10;99.90
15937;DHT22;9163;48.818;8.976;2022-08-19T11:36:55;24.00;99.90
15937;DHT22;9163;48.818;8.976;2022-08-19T11:39:27;24.00;99.90
15937;DHT22;9163;48.818;8.976;2022-08-19T11:41:54;23.80;99.90
15937;DHT22;9163;48.818;8.976;2022-08-19T11:44:22;23.80;99.90
15937;DHT22;9163;48.818;8.976;2022-08-19T11:46:49;23.60;99.90
15937;DHT22;9163;48.818;8.976;2022-08-19T11:49:19;23.80;99.90
15937;DHT22;9163;48.818;8.976;2022-08-19T11:51:48;23.90;99.90
15937;DHT22;9163;48.818;8.976;2022-08-19T11:54:16;23.90;99.90
15937;DHT22;9163;48.818;8.976;2022-08-19T11:56:45;24.00;99.90
15937;DHT22;9163;48.818;8.976;2022-08-19T11:59:14;24.20;99.90
15937;DHT22;9163;48.818;8.976;2022-08-19T12:01:42;24.40;99.90
15937;DHT22;9163;48.818;8.976;2022-08-19T12:04:10;24.40;99.90
15937;DHT22;9163;48.818;8.976;2022-08-19T12:06:39;24.40;99.90
15937;DHT22;9163;48.818;8.976;2022-08-19T12:09:08;24.40;99.90
15937;DHT22;9163;48.818;8.976;2022-08-19T12:11:35;24.50;99.90
15937;DHT22;9163;48.818;8.976;2022-08-19T12:14:05;24.30;99.90
15937;DHT22;9163;48.818;8.976;2022-08-19T12:16:33;24.30;99.90
15937;DHT22;9163;48.818;8.976;2022-08-19T12:19:01;24.50;99.90
15937;DHT22;9163;48.818;8.976;2022-08-19T12:21:31;24.70;99.90
15937;DHT22;9163;48.818;8.976;2022-08-19T12:24:00;24.90;99.90
15937;DHT22;9163;48.818;8.976;2022-08-19T12:26:29;25.40;99.90
15937;DHT22;9163;48.818;8.976;2022-08-19T12:28:57;25.70;99.90
15937;DHT22;9163;48.818;8.976;2022-08-19T12:31:26;26.10;99.90
15937;DHT22;9163;48.818;8.976;2022-08-19T12:33:54;26.30;99.90
15937;DHT22;9163;48.818;8.976;2022-08-19T12:36:21;26.40;99.90
15937;DHT22;9163;48.818;8.976;2022-08-19T12:38:49;26.20;99.90
15937;DHT22;9163;48.818;8.976;2022-08-19T12:41:17;26.30;99.90
15937;DHT22;9163;48.818;8.976;2022-08-19T12:43:48;26.20;99.90
15937;DHT22;9163;48.818;8.976;2022-08-19T12:46:16;25.80;99.90
15937;DHT22;9163;48.818;8.976;2022-08-19T12:48:46;25.80;99.90
15937;DHT22;9163;48.818;8.976;2022-08-19T12:51:15;25.60;99.90
15937;DHT22;9163;48.818;8.976;2022-08-19T12:53:44;25.60;99.90
15937;DHT22;9163;48.818;8.976;2022-08-19T12:56:12;25.60;99.90
15937;DHT22;9163;48.818;8.976;2022-08-19T12:58:40;25.80;99.90
15937;DHT22;9163;48.818;8.976;2022-08-19T13:01:09;26.00;99.90
15937;DHT22;9163;48.818;8.976;2022-08-19T13:03:37;26.10;99.90
15937;DHT22;9163;48.818;8.976;2022-08-19T13:06:07;26.20;99.90
15937;DHT22;9163;48.818;8.976;2022-08-19T13:08:35;26.20;99.90
15937;DHT22;9163;48.818;8.976;2022-08-19T13:11:10;26.20;99.90
15937;DHT22;9163;48.818;8.976;2022-08-19T13:13:40;26.10;99.90
15937;DHT22;9163;48.818;8.976;2022-08-19T13:16:09;25.80;99.90
15937;DHT22;9163;48.818;8.976;2022-08-19T13:18:37;25.80;99.90
15937;DHT22;9163;48.818;8.976;2022-08-19T13:21:08;25.90;99.90
15937;DHT22;9163;48.818;8.976;2022-08-19T13:23:37;25.80;99.90
15937;DHT22;9163;48.818;8.976;2022-08-19T13:26:06;25.80;99.90
15937;DHT22;9163;48.818;8.976;2022-08-19T13:28:34;25.80;99.90
15937;DHT22;9163;48.818;8.976;2022-08-19T13:31:21;25.80;99.90
15937;DHT22;9163;48.818;8.976;2022-08-19T13:34:07;25.60;99.90
15937;DHT22;9163;48.818;8.976;2022-08-19T13:36:37;25.70;99.90
15937;DHT22;9163;48.818;8.976;2022-08-19T13:39:05;25.70;99.90
15937;DHT22;9163;48.818;8.976;2022-08-19T13:41:33;25.60;99.90
15937;DHT22;9163;48.818;8.976;2022-08-19T13:44:01;25.60;99.90
15937;DHT22;9163;48.818;8.976;2022-08-19T13:46:28;25.60;99.90
15937;DHT22;9163;48.818;8.976;2022-08-19T13:48:56;25.50;99.90
15937;DHT22;9163;48.818;8.976;2022-08-19T13:51:23;25.70;99.90
15937;DHT22;9163;48.818;8.976;2022-08-19T13:53:52;25.60;99.90
15937;DHT22;9163;48.818;8.976;2022-08-19T13:56:21;25.60;99.90
15937;DHT22;9163;48.818;8.976;2022-08-19T13:58:48;25.50;99.90
15937;DHT22;9163;48.818;8.976;2022-08-19T14:01:19;25.40;99.90
15937;DHT22;9163;48.818;8.976;2022-08-19T14:03:46;25.20;99.90
15937;DHT22;9163;48.818;8.976;2022-08-19T14:06:14;25.10;99.90
15937;DHT22;9163;48.818;8.976;2022-08-19T14:08:41;25.00;99.90
15937;DHT22;9163;48.818;8.976;2022-08-19T14:11:10;25.00;99.90
15937;DHT22;9163;48.818;8.976;2022-08-19T14:13:37;24.80;99.90
15937;DHT22;9163;48.818;8.976;2022-08-19T14:16:07;24.80;99.90
15937;DHT22;9163;48.818;8.976;2022-08-19T14:18:35;24.80;99.90
15937;DHT22;9163;48.818;8.976;2022-08-19T14:21:03;24.90;99.90
15937;DHT22;9163;48.818;8.976;2022-08-19T14:23:30;24.90;99.90
15937;DHT22;9163;48.818;8.976;2022-08-19T14:26:04;25.00;99.90
15937;DHT22;9163;48.818;8.976;2022-08-19T14:28:33;25.20;99.90
15937;DHT22;9163;48.818;8.976;2022-08-19T14:31:01;25.10;99.90
15937;DHT22;9163;48.818;8.976;2022-08-19T14:33:28;25.30;99.90
15937;DHT22;9163;48.818;8.976;2022-08-19T14:35:55;25.40;99.90
15937;DHT22;9163;48.818;8.976;2022-08-19T14:38:23;25.40;99.90
15937;DHT22;9163;48.818;8.976;2022-08-19T14:40:50;25.30;99.90
15937;DHT22;9163;48.818;8.976;2022-08-19T14:43:18;25.10;99.90
15937;DHT22;9163;48.818;8.976;2022-08-19T14:45:46;25.10;99.90
15937;DHT22;9163;48.818;8.976;2022-08-19T14:48:14;25.10;99.90
15937;DHT22;9163;48.818;8.976;2022-08-19T14:50:41;25.10;99.90
15937;DHT22;9163;48.818;8.976;2022-08-19T14:53:08;25.00;99.90
15937;DHT22;9163;48.818;8.976;2022-08-19T14:55:36;25.00;99.90
15937;DHT22;9163;48.818;8.976;2022-08-19T14:58:03;25.10;99.90
15937;DHT22;9163;48.818;8.976;2022-08-19T15:00:31;25.20;99.90
15937;DHT22;9163;48.818;8.976;2022-08-19T15:02:59;25.30;99.90
15937;DHT22;9163;48.818;8.976;2022-08-19T15:05:27;25.60;99.90
15937;DHT22;9163;48.818;8.976;2022-08-19T15:07:54;25.80;99.90
15937;DHT22;9163;48.818;8.976;2022-08-19T15:10:22;26.30;99.90
15937;DHT22;9163;48.818;8.976;2022-08-19T15:12:50;26.70;99.90
15937;DHT22;9163;48.818;8.976;2022-08-19T15:15:18;27.00;99.90
15937;DHT22;9163;48.818;8.976;2022-08-19T15:17:48;27.10;99.90
15937;DHT22;9163;48.818;8.976;2022-08-19T15:20:18;27.40;99.90
15937;DHT22;9163;48.818;8.976;2022-08-19T15:22:47;27.60;99.90
15937;DHT22;9163;48.818;8.976;2022-08-19T15:25:16;27.20;99.90
15937;DHT22;9163;48.818;8.976;2022-08-19T15:27:44;27.00;99.90
15937;DHT22;9163;48.818;8.976;2022-08-19T15:30:17;27.40;99.90
15937;DHT22;9163;48.818;8.976;2022-08-19T15:32:44;27.30;99.90
15937;DHT22;9163;48.818;8.976;2022-08-19T15:35:11;27.10;99.90
15937;DHT22;9163;48.818;8.976;2022-08-19T15:37:40;27.10;99.90
15937;DHT22;9163;48.818;8.976;2022-08-19T15:40:08;26.80;99.90
15937;DHT22;9163;48.818;8.976;2022-08-19T15:42:37;26.70;99.90
15937;DHT22;9163;48.818;8.976;2022-08-19T15:45:10;26.70;99.90
15937;DHT22;9163;48.818;8.976;2022-08-19T15:47:38;26.60;99.90
15937;DHT22;9163;48.818;8.976;2022-08-19T15:50:07;26.60;99.90
15937;DHT22;9163;48.818;8.976;2022-08-19T15:52:35;26.70;99.90
15937;DHT22;9163;48.818;8.976;2022-08-19T15:55:05;26.60;99.90
15937;DHT22;9163;48.818;8.976;2022-08-19T15:57:33;26.60;99.90